sensor_id;sensor_type;location;lat;lon;timestamp;pressure;altitude;pressure_sealevel;temperature;humidity
4024;BME280;2026;51.002;13.668;2023-06-10T00:03:51;98837.13;;;19.00;91.64
4024;BME280;2026;51.002;13.668;2023-06-10T00:08:54;98833.09;;;18.31;95.94
4024;BME280;2026;51.002;13.668;2023-06-10T00:13:57;98835.13;;;18.71;92.80
4024;BME280;2026;51.002;13.668;2023-06-10T00:19:02;98840.69;;;18.74;92.97
4024;BME280;2026;51.002;13.668;2023-06-10T00:24:07;98842.56;;;18.58;94.41
4024;BME280;2026;51.002;13.668;2023-06-10T00:29:14;98852.69;;;18.61;93.67
4024;BME280;2026;51.002;13.668;2023-06-10T00:34:19;98854.59;;;17.93;98.23
4024;BME280;2026;51.002;13.668;2023-06-10T00:39:22;98867.59;;;18.16;96.20
4024;BME280;2026;51.002;13.668;2023-06-10T00:44:25;98860.16;;;18.33;95.09
4024;BME280;2026;51.002;13.668;2023-06-10T00:49:29;98864.13;;;18.36;94.51
4024;BME280;2026;51.002;13.668;2023-06-10T00:54:32;98873.97;;;18.30;94.80
4024;BME280;2026;51.002;13.668;2023-06-10T00:59:36;98879.28;;;18.25;93.73
4024;BME280;2026;51.002;13.668;2023-06-10T01:04:41;98892.81;;;18.13;94.20
4024;BME280;2026;51.002;13.668;2023-06-10T01:09:49;98897.25;;;17.86;95.75
4024;BME280;2026;51.002;13.668;2023-06-10T01:14:55;98901.53;;;17.98;94.55
4024;BME280;2026;51.002;13.668;2023-06-10T01:20:01;98903.66;;;17.91;94.98
4024;BME280;2026;51.002;13.668;2023-06-10T01:25:08;98911.06;;;17.94;94.71
4024;BME280;2026;51.002;13.668;2023-06-10T01:30:15;98911.59;;;17.85;95.20
4024;BME280;2026;51.002;13.668;2023-06-10T01:35:21;98899.94;;;17.81;93.90
4024;BME280;2026;51.002;13.668;2023-06-10T01:40:29;98908.41;;;17.78;93.72
4024;BME280;2026;51.002;13.668;2023-06-10T01:45:33;98911.06;;;17.73;94.66
4024;BME280;2026;51.002;13.668;2023-06-10T01:50:36;98917.38;;;17.62;95.35
4024;BME280;2026;51.002;13.668;2023-06-10T01:55:40;98920.84;;;17.62;95.27
4024;BME280;2026;51.002;13.668;2023-06-10T02:00:43;98923.75;;;17.61;95.39
4024;BME280;2026;51.002;13.668;2023-06-10T02:05:46;98929.44;;;17.21;99.49
4024;BME280;2026;51.002;13.668;2023-06-10T02:10:51;98930.84;;;17.39;96.72
4024;BME280;2026;51.002;13.668;2023-06-10T02:15:54;98941.91;;;17.26;98.03
4024;BME280;2026;51.002;13.668;2023-06-10T02:20:57;98943.00;;;17.30;97.31
4024;BME280;2026;51.002;13.668;2023-06-10T02:26:02;98949.59;;;17.27;96.51
4024;BME280;2026;51.002;13.668;2023-06-10T02:31:05;98934.69;;;17.11;97.70
4024;BME280;2026;51.002;13.668;2023-06-10T02:36:08;98942.91;;;17.09;97.28
4024;BME280;2026;51.002;13.668;2023-06-10T02:41:16;98951.63;;;17.04;97.03
4024;BME280;2026;51.002;13.668;2023-06-10T02:46:21;98946.28;;;16.99;96.26
4024;BME280;2026;51.002;13.668;2023-06-10T02:51:26;98946.97;;;16.84;96.48
4024;BME280;2026;51.002;13.668;2023-06-10T02:56:35;98936.88;;;16.81;97.04
4024;BME280;2026;51.002;13.668;2023-06-10T03:01:44;98933.34;;;16.65;97.20
4024;BME280;2026;51.002;13.668;2023-06-10T03:06:47;98939.72;;;16.69;96.46
4024;BME280;2026;51.002;13.668;2023-06-10T03:12:00;98941.59;;;16.74;96.26
4024;BME280;2026;51.002;13.668;2023-06-10T03:17:08;98941.38;;;16.81;95.32
4024;BME280;2026;51.002;13.668;2023-06-10T03:22:16;98942.16;;;16.81;95.31
4024;BME280;2026;51.002;13.668;2023-06-10T03:27:28;98946.63;;;16.75;95.98
4024;BME280;2026;51.002;13.668;2023-06-10T03:32:35;98950.75;;;16.56;97.92
4024;BME280;2026;51.002;13.668;2023-06-10T03:37:40;98951.00;;;16.92;95.62
4024;BME280;2026;51.002;13.668;2023-06-10T03:42:45;98951.09;;;17.08;94.49
4024;BME280;2026;51.002;13.668;2023-06-10T03:47:52;98955.53;;;17.55;92.30
4024;BME280;2026;51.002;13.668;2023-06-10T03:52:59;98965.97;;;19.84;81.02
4024;BME280;2026;51.002;13.668;2023-06-10T03:58:03;98964.31;;;21.65;72.22
4024;BME280;2026;51.002;13.668;2023-06-10T04:03:06;98975.78;;;21.85;71.13
4024;BME280;2026;51.002;13.668;2023-06-10T04:08:15;98973.03;;;22.29;69.00
4024;BME280;2026;51.002;13.668;2023-06-10T04:13:20;98986.34;;;21.95;69.57
4024;BME280;2026;51.002;13.668;2023-06-10T04:18:28;98981.53;;;22.31;69.85
4024;BME280;2026;51.002;13.668;2023-06-10T04:23:35;98990.81;;;23.00;66.76
4024;BME280;2026;51.002;13.668;2023-06-10T04:28:42;98983.88;;;22.85;66.77
4024;BME280;2026;51.002;13.668;2023-06-10T04:33:47;98983.69;;;23.37;65.81
4024;BME280;2026;51.002;13.668;2023-06-10T04:38:50;98986.97;;;23.99;64.17
4024;BME280;2026;51.002;13.668;2023-06-10T04:43:55;98991.44;;;23.53;65.66
4024;BME280;2026;51.002;13.668;2023-06-10T04:49:00;98982.00;;;23.92;64.83
4024;BME280;2026;51.002;13.668;2023-06-10T04:54:03;98990.47;;;23.85;64.34
4024;BME280;2026;51.002;13.668;2023-06-10T04:59:07;98982.28;;;23.68;64.69
4024;BME280;2026;51.002;13.668;2023-06-10T05:04:10;98992.00;;;23.64;65.06
4024;BME280;2026;51.002;13.668;2023-06-10T05:09:13;98986.75;;;24.55;63.46
4024;BME280;2026;51.002;13.668;2023-06-10T05:14:17;98994.28;;;24.76;61.79
4024;BME280;2026;51.002;13.668;2023-06-10T05:19:22;99000.50;;;25.26;61.41
4024;BME280;2026;51.002;13.668;2023-06-10T05:24:25;98992.66;;;25.47;59.44
4024;BME280;2026;51.002;13.668;2023-06-10T05:29:29;98994.94;;;26.15;57.76
4024;BME280;2026;51.002;13.668;2023-06-10T05:34:32;98999.25;;;24.37;61.35
4024;BME280;2026;51.002;13.668;2023-06-10T05:39:35;98997.97;;;23.32;65.27
4024;BME280;2026;51.002;13.668;2023-06-10T05:44:41;98996.50;;;22.65;67.98
4024;BME280;2026;51.002;13.668;2023-06-10T05:49:44;99004.91;;;22.39;69.59
4024;BME280;2026;51.002;13.668;2023-06-10T05:54:50;99007.69;;;22.34;70.86
4024;BME280;2026;51.002;13.668;2023-06-10T05:59:54;99004.50;;;23.26;68.72
4024;BME280;2026;51.002;13.668;2023-06-10T06:04:57;99012.50;;;24.96;62.26
4024;BME280;2026;51.002;13.668;2023-06-10T06:10:00;99008.63;;;25.61;61.04
4024;BME280;2026;51.002;13.668;2023-06-10T06:15:05;99008.06;;;26.08;58.71
4024;BME280;2026;51.002;13.668;2023-06-10T06:20:11;99022.25;;;25.91;57.87
4024;BME280;2026;51.002;13.668;2023-06-10T06:25:14;99012.00;;;26.02;57.31
4024;BME280;2026;51.002;13.668;2023-06-10T06:30:19;99017.69;;;26.53;57.56
4024;BME280;2026;51.002;13.668;2023-06-10T06:35:22;99022.06;;;27.23;57.34
4024;BME280;2026;51.002;13.668;2023-06-10T06:40:25;99024.09;;;26.87;55.45
4024;BME280;2026;51.002;13.668;2023-06-10T06:45:29;99015.69;;;26.89;54.73
4024;BME280;2026;51.002;13.668;2023-06-10T06:50:32;99032.72;;;25.34;59.63
4024;BME280;2026;51.002;13.668;2023-06-10T06:55:35;99036.28;;;24.21;61.98
4024;BME280;2026;51.002;13.668;2023-06-10T07:00:39;99041.88;;;24.10;62.77
4024;BME280;2026;51.002;13.668;2023-06-10T07:05:43;99051.72;;;22.89;66.06
4024;BME280;2026;51.002;13.668;2023-06-10T07:10:46;99058.63;;;23.51;64.99
4024;BME280;2026;51.002;13.668;2023-06-10T07:15:52;99067.34;;;23.57;65.57
4024;BME280;2026;51.002;13.668;2023-06-10T07:20:55;99067.13;;;23.81;64.36
4024;BME280;2026;51.002;13.668;2023-06-10T07:25:58;99072.66;;;25.04;61.00
4024;BME280;2026;51.002;13.668;2023-06-10T07:31:02;99073.19;;;23.73;64.01
4024;BME280;2026;51.002;13.668;2023-06-10T07:36:06;99073.59;;;22.91;67.79
4024;BME280;2026;51.002;13.668;2023-06-10T07:41:09;99085.16;;;22.67;68.87
4024;BME280;2026;51.002;13.668;2023-06-10T07:46:13;99085.47;;;22.99;67.07
4024;BME280;2026;51.002;13.668;2023-06-10T07:51:17;99089.59;;;22.58;68.99
4024;BME280;2026;51.002;13.668;2023-06-10T07:56:20;99083.56;;;23.32;66.63
4024;BME280;2026;51.002;13.668;2023-06-10T08:01:25;99089.69;;;23.19;67.36
4024;BME280;2026;51.002;13.668;2023-06-10T08:06:28;99090.53;;;23.48;66.96
4024;BME280;2026;51.002;13.668;2023-06-10T08:11:31;99094.50;;;23.64;66.92
4024;BME280;2026;51.002;13.668;2023-06-10T08:16:35;99098.84;;;24.02;65.06
4024;BME280;2026;51.002;13.668;2023-06-10T08:21:38;99096.31;;;24.34;65.06
4024;BME280;2026;51.002;13.668;2023-06-10T08:26:41;99107.59;;;24.67;64.28
4024;BME280;2026;51.002;13.668;2023-06-10T08:31:46;99110.88;;;24.41;64.25
4024;BME280;2026;51.002;13.668;2023-06-10T08:36:49;99107.75;;;25.89;61.28
4024;BME280;2026;51.002;13.668;2023-06-10T08:42:04;99102.16;;;27.95;55.28
4024;BME280;2026;51.002;13.668;2023-06-10T08:47:13;99100.34;;;27.48;55.86
4024;BME280;2026;51.002;13.668;2023-06-10T08:52:18;99095.56;;;27.54;54.16
4024;BME280;2026;51.002;13.668;2023-06-10T08:57:22;99084.03;;;26.97;56.59
4024;BME280;2026;51.002;13.668;2023-06-10T09:02:27;99092.16;;;26.79;56.87
4024;BME280;2026;51.002;13.668;2023-06-10T09:07:30;99099.38;;;25.99;59.23
4024;BME280;2026;51.002;13.668;2023-06-10T09:12:36;99093.72;;;26.18;58.98
4024;BME280;2026;51.002;13.668;2023-06-10T09:17:41;99093.09;;;26.48;56.44
4024;BME280;2026;51.002;13.668;2023-06-10T09:22:44;99085.22;;;26.52;58.14
4024;BME280;2026;51.002;13.668;2023-06-10T09:27:49;99091.38;;;26.35;57.64
4024;BME280;2026;51.002;13.668;2023-06-10T09:32:54;99095.31;;;26.37;57.73
4024;BME280;2026;51.002;13.668;2023-06-10T09:38:00;99089.00;;;26.24;56.86
4024;BME280;2026;51.002;13.668;2023-06-10T09:43:03;99088.34;;;26.45;56.83
4024;BME280;2026;51.002;13.668;2023-06-10T09:48:08;99088.34;;;26.80;55.48
4024;BME280;2026;51.002;13.668;2023-06-10T09:53:11;99093.72;;;26.63;55.23
4024;BME280;2026;51.002;13.668;2023-06-10T09:58:15;99090.31;;;27.10;55.01
4024;BME280;2026;51.002;13.668;2023-06-10T10:03:23;99100.28;;;27.09;55.29
4024;BME280;2026;51.002;13.668;2023-06-10T10:08:26;99102.97;;;27.27;53.37
4024;BME280;2026;51.002;13.668;2023-06-10T10:13:33;99101.00;;;26.71;56.09
4024;BME280;2026;51.002;13.668;2023-06-10T10:18:39;99093.88;;;28.01;54.42
4024;BME280;2026;51.002;13.668;2023-06-10T10:23:50;99095.84;;;27.61;53.55
4024;BME280;2026;51.002;13.668;2023-06-10T10:29:05;99095.78;;;28.64;49.53
4024;BME280;2026;51.002;13.668;2023-06-10T10:34:14;99097.88;;;27.64;53.46
4024;BME280;2026;51.002;13.668;2023-06-10T10:39:19;99096.53;;;26.93;54.18
4024;BME280;2026;51.002;13.668;2023-06-10T10:44:24;99092.75;;;25.97;57.72
4024;BME280;2026;51.002;13.668;2023-06-10T10:49:30;99090.25;;;26.44;56.12
4024;BME280;2026;51.002;13.668;2023-06-10T10:54:35;99084.56;;;26.72;56.80
4024;BME280;2026;51.002;13.668;2023-06-10T10:59:51;99086.19;;;27.12;55.18
4024;BME280;2026;51.002;13.668;2023-06-10T11:04:55;99079.16;;;26.81;54.37
4024;BME280;2026;51.002;13.668;2023-06-10T11:09:59;99075.22;;;27.35;54.99
4024;BME280;2026;51.002;13.668;2023-06-10T11:15:03;99072.41;;;27.62;51.76
4024;BME280;2026;51.002;13.668;2023-06-10T11:20:08;99063.25;;;28.05;51.43
4024;BME280;2026;51.002;13.668;2023-06-10T11:25:13;99058.09;;;28.34;49.40
4024;BME280;2026;51.002;13.668;2023-06-10T11:30:20;99049.41;;;28.83;46.69
4024;BME280;2026;51.002;13.668;2023-06-10T11:35:25;99041.41;;;28.74;44.69
4024;BME280;2026;51.002;13.668;2023-06-10T11:40:29;99031.44;;;29.12;44.74
4024;BME280;2026;51.002;13.668;2023-06-10T11:45:32;99038.63;;;29.08;45.07
4024;BME280;2026;51.002;13.668;2023-06-10T11:50:36;99041.28;;;28.37;46.56
4024;BME280;2026;51.002;13.668;2023-06-10T11:55:41;99047.19;;;28.30;45.08
4024;BME280;2026;51.002;13.668;2023-06-10T12:00:46;99035.31;;;26.81;49.23
4024;BME280;2026;51.002;13.668;2023-06-10T12:06:01;99026.41;;;27.88;47.36
4024;BME280;2026;51.002;13.668;2023-06-10T12:11:04;99028.13;;;27.11;49.06
4024;BME280;2026;51.002;13.668;2023-06-10T12:16:07;99025.88;;;28.71;46.27
4024;BME280;2026;51.002;13.668;2023-06-10T12:21:24;99026.69;;;27.74;46.64
4024;BME280;2026;51.002;13.668;2023-06-10T12:26:37;99018.88;;;28.58;44.16
4024;BME280;2026;51.002;13.668;2023-06-10T12:31:58;99008.63;;;28.17;44.21
4024;BME280;2026;51.002;13.668;2023-06-10T12:37:05;98997.34;;;28.70;44.72
4024;BME280;2026;51.002;13.668;2023-06-10T12:42:09;99007.44;;;27.85;45.63
4024;BME280;2026;51.002;13.668;2023-06-10T12:47:12;98992.06;;;28.40;43.30
4024;BME280;2026;51.002;13.668;2023-06-10T12:52:16;98995.19;;;27.87;42.96
4024;BME280;2026;51.002;13.668;2023-06-10T12:57:20;98996.84;;;28.56;42.81
4024;BME280;2026;51.002;13.668;2023-06-10T13:02:23;99009.63;;;28.80;42.53
4024;BME280;2026;51.002;13.668;2023-06-10T13:07:27;99011.22;;;27.92;39.66
4024;BME280;2026;51.002;13.668;2023-06-10T13:12:32;99001.72;;;28.29;39.42
4024;BME280;2026;51.002;13.668;2023-06-10T13:17:48;99003.56;;;28.49;40.93
4024;BME280;2026;51.002;13.668;2023-06-10T13:22:54;99000.41;;;28.14;39.80
4024;BME280;2026;51.002;13.668;2023-06-10T13:27:57;99000.03;;;28.70;39.89
4024;BME280;2026;51.002;13.668;2023-06-10T13:33:00;99006.59;;;28.94;38.62
4024;BME280;2026;51.002;13.668;2023-06-10T13:38:04;99005.09;;;28.38;39.41
4024;BME280;2026;51.002;13.668;2023-06-10T13:43:08;98998.38;;;28.10;36.72
4024;BME280;2026;51.002;13.668;2023-06-10T13:48:11;98991.25;;;28.27;35.77
4024;BME280;2026;51.002;13.668;2023-06-10T13:53:16;98986.44;;;28.33;32.13
4024;BME280;2026;51.002;13.668;2023-06-10T13:58:19;98988.03;;;28.00;33.72
4024;BME280;2026;51.002;13.668;2023-06-10T14:03:22;98992.06;;;28.28;34.31
4024;BME280;2026;51.002;13.668;2023-06-10T14:08:26;98996.84;;;28.22;35.23
4024;BME280;2026;51.002;13.668;2023-06-10T14:13:29;98997.03;;;28.38;34.87
4024;BME280;2026;51.002;13.668;2023-06-10T14:18:32;98992.38;;;28.26;35.91
4024;BME280;2026;51.002;13.668;2023-06-10T14:23:37;98978.97;;;28.51;35.89
4024;BME280;2026;51.002;13.668;2023-06-10T14:28:40;98981.13;;;28.58;33.83
4024;BME280;2026;51.002;13.668;2023-06-10T14:33:43;98979.56;;;28.57;33.15
4024;BME280;2026;51.002;13.668;2023-06-10T14:38:47;98984.44;;;28.42;33.49
4024;BME280;2026;51.002;13.668;2023-06-10T14:43:50;98993.31;;;28.76;34.75
4024;BME280;2026;51.002;13.668;2023-06-10T14:48:53;98982.41;;;28.73;34.95
4024;BME280;2026;51.002;13.668;2023-06-10T14:53:57;98991.44;;;28.43;35.73
4024;BME280;2026;51.002;13.668;2023-06-10T14:59:01;98990.88;;;28.16;35.89
4024;BME280;2026;51.002;13.668;2023-06-10T15:04:04;98988.94;;;28.38;35.13
4024;BME280;2026;51.002;13.668;2023-06-10T15:09:08;98987.69;;;28.69;35.27
4024;BME280;2026;51.002;13.668;2023-06-10T15:14:11;98989.81;;;28.63;34.83
4024;BME280;2026;51.002;13.668;2023-06-10T15:19:14;98976.78;;;28.32;35.33
4024;BME280;2026;51.002;13.668;2023-06-10T15:24:18;98984.50;;;28.21;35.13
4024;BME280;2026;51.002;13.668;2023-06-10T15:29:22;98976.97;;;27.93;36.38
4024;BME280;2026;51.002;13.668;2023-06-10T15:34:25;98974.41;;;28.64;36.92
4024;BME280;2026;51.002;13.668;2023-06-10T15:39:29;98985.66;;;28.78;36.64
4024;BME280;2026;51.002;13.668;2023-06-10T15:44:32;98977.75;;;27.93;38.10
4024;BME280;2026;51.002;13.668;2023-06-10T15:49:35;98977.94;;;27.67;39.38
4024;BME280;2026;51.002;13.668;2023-06-10T15:54:40;98982.53;;;28.09;38.58
4024;BME280;2026;51.002;13.668;2023-06-10T15:59:43;98978.78;;;27.59;39.34
4024;BME280;2026;51.002;13.668;2023-06-10T16:04:46;98977.59;;;27.68;39.43
4024;BME280;2026;51.002;13.668;2023-06-10T16:09:50;98993.50;;;27.82;37.21
4024;BME280;2026;51.002;13.668;2023-06-10T16:14:53;98992.25;;;27.80;36.18
4024;BME280;2026;51.002;13.668;2023-06-10T16:19:56;99003.59;;;27.64;37.23
4024;BME280;2026;51.002;13.668;2023-06-10T16:25:00;99001.91;;;27.60;37.22
4024;BME280;2026;51.002;13.668;2023-06-10T16:30:05;99002.13;;;27.15;38.34
4024;BME280;2026;51.002;13.668;2023-06-10T16:35:08;99000.53;;;27.23;37.13
4024;BME280;2026;51.002;13.668;2023-06-10T16:40:13;99002.16;;;27.46;37.51
4024;BME280;2026;51.002;13.668;2023-06-10T16:45:16;99006.25;;;27.52;38.58
4024;BME280;2026;51.002;13.668;2023-06-10T16:50:19;99009.94;;;27.68;39.22
4024;BME280;2026;51.002;13.668;2023-06-10T16:55:24;99020.16;;;27.54;39.29
4024;BME280;2026;51.002;13.668;2023-06-10T17:00:27;99009.09;;;27.47;38.71
4024;BME280;2026;51.002;13.668;2023-06-10T17:05:29;99014.66;;;27.72;39.44
4024;BME280;2026;51.002;13.668;2023-06-10T17:10:34;99021.59;;;27.21;39.46
4024;BME280;2026;51.002;13.668;2023-06-10T17:15:37;99023.28;;;26.87;39.44
4024;BME280;2026;51.002;13.668;2023-06-10T17:20:40;99029.50;;;26.70;38.75
4024;BME280;2026;51.002;13.668;2023-06-10T17:25:45;99030.66;;;26.60;38.56
4024;BME280;2026;51.002;13.668;2023-06-10T17:30:48;99027.94;;;26.42;39.79
4024;BME280;2026;51.002;13.668;2023-06-10T17:35:51;99029.22;;;26.27;41.30
4024;BME280;2026;51.002;13.668;2023-06-10T17:40:55;99038.88;;;26.11;42.37
4024;BME280;2026;51.002;13.668;2023-06-10T17:45:58;99039.97;;;25.92;42.50
4024;BME280;2026;51.002;13.668;2023-06-10T17:51:01;99033.59;;;25.70;43.33
4024;BME280;2026;51.002;13.668;2023-06-10T17:56:06;99052.06;;;25.72;44.63
4024;BME280;2026;51.002;13.668;2023-06-10T18:01:09;99047.94;;;25.57;45.65
4024;BME280;2026;51.002;13.668;2023-06-10T18:06:12;99047.69;;;25.27;46.73
4024;BME280;2026;51.002;13.668;2023-06-10T18:11:17;99049.19;;;25.10;47.28
4024;BME280;2026;51.002;13.668;2023-06-10T18:16:20;99046.25;;;24.97;47.98
4024;BME280;2026;51.002;13.668;2023-06-10T18:21:24;99041.63;;;24.80;49.04
4024;BME280;2026;51.002;13.668;2023-06-10T18:26:28;99049.25;;;24.64;50.17
4024;BME280;2026;51.002;13.668;2023-06-10T18:31:31;99046.38;;;24.38;51.10
4024;BME280;2026;51.002;13.668;2023-06-10T18:36:34;99053.78;;;24.18;52.18
4024;BME280;2026;51.002;13.668;2023-06-10T18:41:39;99059.66;;;24.06;51.90
4024;BME280;2026;51.002;13.668;2023-06-10T18:46:42;99074.06;;;23.96;52.53
4024;BME280;2026;51.002;13.668;2023-06-10T18:51:45;99073.75;;;23.84;52.59
4024;BME280;2026;51.002;13.668;2023-06-10T18:56:49;99081.81;;;23.70;53.26
4024;BME280;2026;51.002;13.668;2023-06-10T19:01:53;99084.59;;;23.51;53.44
4024;BME280;2026;51.002;13.668;2023-06-10T19:06:56;99100.22;;;23.29;55.16
4024;BME280;2026;51.002;13.668;2023-06-10T19:12:01;99103.84;;;23.05;56.16
4024;BME280;2026;51.002;13.668;2023-06-10T19:17:04;99112.78;;;22.82;57.43
4024;BME280;2026;51.002;13.668;2023-06-10T19:22:07;99120.69;;;22.68;58.14
4024;BME280;2026;51.002;13.668;2023-06-10T19:27:11;99129.16;;;22.56;57.93
4024;BME280;2026;51.002;13.668;2023-06-10T19:32:14;99130.44;;;22.39;58.39
4024;BME280;2026;51.002;13.668;2023-06-10T19:37:17;99144.72;;;22.29;58.60
4024;BME280;2026;51.002;13.668;2023-06-10T19:42:22;99145.97;;;22.18;59.11
4024;BME280;2026;51.002;13.668;2023-06-10T19:47:25;99145.13;;;21.98;59.94
4024;BME280;2026;51.002;13.668;2023-06-10T19:52:28;99154.59;;;21.85;60.76
4024;BME280;2026;51.002;13.668;2023-06-10T19:57:35;99147.50;;;21.75;61.00
4024;BME280;2026;51.002;13.668;2023-06-10T20:02:38;99147.19;;;21.52;62.18
4024;BME280;2026;51.002;13.668;2023-06-10T20:07:41;99152.91;;;21.40;63.05
4024;BME280;2026;51.002;13.668;2023-06-10T20:12:45;99159.41;;;21.29;64.12
4024;BME280;2026;51.002;13.668;2023-06-10T20:17:48;99156.38;;;21.06;65.26
4024;BME280;2026;51.002;13.668;2023-06-10T20:22:53;99164.72;;;20.94;66.17
4024;BME280;2026;51.002;13.668;2023-06-10T20:27:59;99162.91;;;20.84;66.38
4024;BME280;2026;51.002;13.668;2023-06-10T20:33:02;99167.03;;;20.66;67.38
4024;BME280;2026;51.002;13.668;2023-06-10T20:38:05;99168.97;;;20.50;68.07
4024;BME280;2026;51.002;13.668;2023-06-10T20:43:09;99171.16;;;20.38;68.93
4024;BME280;2026;51.002;13.668;2023-06-10T20:48:13;99180.28;;;20.26;69.67
4024;BME280;2026;51.002;13.668;2023-06-10T20:53:17;99175.25;;;20.14;69.96
4024;BME280;2026;51.002;13.668;2023-06-10T20:58:21;99180.34;;;20.05;70.93
4024;BME280;2026;51.002;13.668;2023-06-10T21:03:24;99178.50;;;19.90;71.48
4024;BME280;2026;51.002;13.668;2023-06-10T21:08:27;99178.28;;;19.76;72.38
4024;BME280;2026;51.002;13.668;2023-06-10T21:13:32;99194.78;;;19.68;72.64
4024;BME280;2026;51.002;13.668;2023-06-10T21:18:35;99199.03;;;19.59;73.30
4024;BME280;2026;51.002;13.668;2023-06-10T21:23:38;99194.53;;;19.44;73.97
4024;BME280;2026;51.002;13.668;2023-06-10T21:28:43;99197.47;;;19.27;74.52
4024;BME280;2026;51.002;13.668;2023-06-10T21:33:45;99201.19;;;19.26;75.16
4024;BME280;2026;51.002;13.668;2023-06-10T21:38:48;99201.19;;;19.15;75.46
4024;BME280;2026;51.002;13.668;2023-06-10T21:43:53;99206.47;;;19.20;74.60
4024;BME280;2026;51.002;13.668;2023-06-10T21:48:56;99215.75;;;19.02;75.77
4024;BME280;2026;51.002;13.668;2023-06-10T21:53:59;99218.16;;;18.99;75.21
4024;BME280;2026;51.002;13.668;2023-06-10T21:59:04;99221.31;;;18.90;76.16
4024;BME280;2026;51.002;13.668;2023-06-10T22:04:07;99220.16;;;18.65;77.53
4024;BME280;2026;51.002;13.668;2023-06-10T22:09:10;99220.16;;;18.55;77.65
4024;BME280;2026;51.002;13.668;2023-06-10T22:14:14;99220.06;;;18.34;78.56
4024;BME280;2026;51.002;13.668;2023-06-10T22:19:17;99225.88;;;18.31;78.28
4024;BME280;2026;51.002;13.668;2023-06-10T22:24:20;99226.63;;;18.21;78.53
4024;BME280;2026;51.002;13.668;2023-06-10T22:29:25;99229.19;;;18.06;79.39
4024;BME280;2026;51.002;13.668;2023-06-10T22:34:28;99223.13;;;18.05;79.41
4024;BME280;2026;51.002;13.668;2023-06-10T22:39:31;99221.94;;;17.91;79.67
4024;BME280;2026;51.002;13.668;2023-06-10T22:44:35;99222.38;;;17.77;79.82
4024;BME280;2026;51.002;13.668;2023-06-10T22:49:38;99225.72;;;17.62;80.35
4024;BME280;2026;51.002;13.668;2023-06-10T22:54:42;99226.38;;;17.42;81.34
4024;BME280;2026;51.002;13.668;2023-06-10T22:59:46;99222.56;;;17.33;82.05
4024;BME280;2026;51.002;13.668;2023-06-10T23:04:49;99214.53;;;17.22;82.33
4024;BME280;2026;51.002;13.668;2023-06-10T23:09:52;99214.28;;;17.24;81.88
4024;BME280;2026;51.002;13.668;2023-06-10T23:14:56;99215.06;;;16.97;82.67
4024;BME280;2026;51.002;13.668;2023-06-10T23:20:00;99216.63;;;16.93;82.42
4024;BME280;2026;51.002;13.668;2023-06-10T23:25:03;99221.06;;;16.87;81.80
4024;BME280;2026;51.002;13.668;2023-06-10T23:30:09;99223.28;;;16.73;81.85
4024;BME280;2026;51.002;13.668;2023-06-10T23:35:12;99222.28;;;16.79;81.03
4024;BME280;2026;51.002;13.668;2023-06-10T23:40:20;99223.66;;;16.59;81.56
4024;BME280;2026;51.002;13.668;2023-06-10T23:45:25;99220.66;;;16.51;82.18
4024;BME280;2026;51.002;13.668;2023-06-10T23:50:28;99215.78;;;16.42;82.19
4024;BME280;2026;51.002;13.668;2023-06-10T23:55:33;99220.47;;;16.35;82.31
